Time;durP1;ratioP1;P1;durP2;ratioP2;P2;SDS_P1;SDS_P2;PMS_P1;PMS_P2;Temp;Humidity;BMP_temperature;BMP_pressure;BME280_temperature;BME280_humidity;BME280_pressure;Samples;Min_cycle;Max_cycle;Signal;HPM_P1;HPM_P2
2023/12/29 00:01:46;;;;;;;134.13;71.23;;;;;;;;;;5132291;27;318599;-79
2023/12/29 00:04:17;;;;;;;134.73;70.47;;;;;;;;;;5176946;27;318822;-79
2023/12/29 00:06:45;;;;;;;117.73;67.60;;;;;;;;;;5164206;27;319260;-80
2023/12/29 00:09:12;;;;;;;140.90;74.57;;;;;;;;;;5185519;27;318807;-79
2023/12/29 00:11:39;;;;;;;149.40;82.83;;;;;;;;;;5166299;27;418483;-80
2023/12/29 00:14:06;;;;;;;155.70;82.63;;;;;;;;;;5189646;27;319238;-79
2023/12/29 00:16:35;;;;;;;142.47;79.07;;;;;;;;;;5177435;27;319063;-79
2023/12/29 00:19:02;;;;;;;147.67;76.53;;;;;;;;;;5189035;27;317568;-79
2023/12/29 00:21:29;;;;;;;103.33;60.10;;;;;;;;;;5170253;27;318300;-79
2023/12/29 00:23:57;;;;;;;112.67;62.53;;;;;;;;;;5187533;27;319298;-80
2023/12/29 00:26:24;;;;;;;98.60;58.10;;;;;;;;;;5176889;27;319522;-80
2023/12/29 00:28:52;;;;;;;102.30;56.67;;;;;;;;;;5188894;27;327246;-81
2023/12/29 00:31:18;;;;;;;105.80;60.20;;;;;;;;;;5178879;27;319298;-79
2023/12/29 00:33:45;;;;;;;97.73;53.87;;;;;;;;;;5182240;27;319236;-79
2023/12/29 00:36:16;;;;;;;88.37;52.43;;;;;;;;;;5187592;27;341565;-79
2023/12/29 00:38:43;;;;;;;90.67;53.73;;;;;;;;;;5174089;27;417574;-79
2023/12/29 00:41:12;;;;;;;79.93;48.57;;;;;;;;;;5190606;27;318250;-79
2023/12/29 00:43:49;;;;;;;72.00;44.23;;;;;;;;;;5133620;27;316794;-79
2023/12/29 00:46:16;;;;;;;73.53;44.80;;;;;;;;;;5194863;27;364782;-79
2023/12/29 00:48:45;;;;;;;77.17;46.10;;;;;;;;;;5209151;27;318103;-80
2023/12/29 00:51:12;;;;;;;76.70;45.67;;;;;;;;;;5210299;27;316495;-78
2023/12/29 00:53:39;;;;;;;95.83;53.47;;;;;;;;;;5186428;27;416124;-79
2023/12/29 00:56:12;;;;;;;139.80;81.03;;;;;;;;;;5179805;27;352253;-79
2023/12/29 00:58:39;;;;;;;148.17;79.20;;;;;;;;;;5186978;27;418092;-79
2023/12/29 01:01:08;;;;;;;139.33;82.33;;;;;;;;;;5189680;27;342040;-79
2023/12/29 01:03:54;;;;;;;162.63;85.67;;;;;;;;;;5141930;27;317941;-79
2023/12/29 01:09:08;;;;;;;165.30;86.33;;;;;;;;;;5187307;27;318781;-79
2023/12/29 01:11:36;;;;;;;173.00;90.23;;;;;;;;;;5169125;27;319338;-80
2023/12/29 01:14:05;;;;;;;164.27;85.37;;;;;;;;;;5160733;27;317875;-79
2023/12/29 01:16:43;;;;;;;148.70;82.57;;;;;;;;;;5175546;27;317598;-79
2023/12/29 01:19:09;;;;;;;166.50;90.80;;;;;;;;;;5187914;27;317937;-79
2023/12/29 01:21:50;;;;;;;182.30;106.97;;;;;;;;;;5167623;27;318467;-79
2023/12/29 01:24:16;;;;;;;221.67;118.20;;;;;;;;;;5146629;27;319710;-79
2023/12/29 01:26:44;;;;;;;247.37;133.37;;;;;;;;;;5185597;27;320329;-79
2023/12/29 01:29:15;;;;;;;235.50;131.53;;;;;;;;;;5185246;27;320517;-80
2023/12/29 01:31:41;;;;;;;276.13;141.30;;;;;;;;;;5164777;27;419513;-79
2023/12/29 01:34:08;;;;;;;290.87;141.90;;;;;;;;;;5185734;27;319683;-78
2023/12/29 01:36:37;;;;;;;287.20;143.97;;;;;;;;;;5175270;27;342314;-79
2023/12/29 01:39:08;;;;;;;266.70;139.10;;;;;;;;;;5185176;27;319840;-79
2023/12/29 01:41:34;;;;;;;398.03;191.10;;;;;;;;;;5167489;27;320381;-79
2023/12/29 01:44:26;;;;;;;258.13;129.83;;;;;;;;;;5185523;27;319562;-78
2023/12/29 01:47:05;;;;;;;145.73;82.10;;;;;;;;;;5140103;27;419466;-78
2023/12/29 01:49:42;;;;;;;126.77;72.00;;;;;;;;;;5154750;27;318684;-79
2023/12/29 01:52:18;;;;;;;103.03;64.40;;;;;;;;;;5171053;27;326190;-79
2023/12/29 01:54:53;;;;;;;172.33;90.90;;;;;;;;;;5144097;27;419497;-78
2023/12/29 01:57:21;;;;;;;202.87;105.73;;;;;;;;;;5175642;27;319176;-80
2023/12/29 01:59:50;;;;;;;222.33;110.30;;;;;;;;;;5177792;27;320313;-78
2023/12/29 02:02:17;;;;;;;203.90;100.53;;;;;;;;;;5175951;27;319734;-78
2023/12/29 02:04:44;;;;;;;201.03;102.77;;;;;;;;;;5188142;27;319850;-78
2023/12/29 02:07:11;;;;;;;190.73;102.00;;;;;;;;;;5188880;27;320479;-78
2023/12/29 02:09:39;;;;;;;178.93;97.00;;;;;;;;;;5166295;27;419396;-78
2023/12/29 02:12:06;;;;;;;182.13;98.60;;;;;;;;;;5188960;27;319318;-78
2023/12/29 02:17:33;;;;;;;172.30;93.90;;;;;;;;;;5143177;27;401812;-78
2023/12/29 02:20:05;;;;;;;162.93;88.97;;;;;;;;;;5187751;27;319771;-79
2023/12/29 02:22:43;;;;;;;130.87;71.20;;;;;;;;;;5176518;27;318265;-78
2023/12/29 02:25:12;;;;;;;119.10;66.33;;;;;;;;;;5190315;27;319456;-80
2023/12/29 02:27:47;;;;;;;144.70;79.33;;;;;;;;;;5165580;27;418883;-80
2023/12/29 02:30:19;;;;;;;149.23;81.00;;;;;;;;;;5177161;27;319369;-79
2023/12/29 02:32:47;;;;;;;149.70;79.30;;;;;;;;;;5187965;27;319171;-80
2023/12/29 02:35:18;;;;;;;141.30;75.47;;;;;;;;;;5175300;27;350072;-79
2023/12/29 02:37:45;;;;;;;142.00;79.80;;;;;;;;;;5196582;27;317955;-79
2023/12/29 02:40:15;;;;;;;129.23;78.60;;;;;;;;;;5201254;27;318917;-79
2023/12/29 02:42:49;;;;;;;125.70;78.03;;;;;;;;;;5182059;27;316606;-79
2023/12/29 02:45:16;;;;;;;140.57;76.30;;;;;;;;;;5181864;27;319072;-80
2023/12/29 02:47:52;;;;;;;138.07;78.33;;;;;;;;;;5181911;27;317576;-79
2023/12/29 02:50:21;;;;;;;128.30;75.47;;;;;;;;;;5147980;27;319251;-79
2023/12/29 02:52:48;;;;;;;146.53;76.80;;;;;;;;;;5187632;27;319562;-79
2023/12/29 02:55:21;;;;;;;146.93;79.07;;;;;;;;;;5173817;27;391033;-79
2023/12/29 02:57:48;;;;;;;145.67;79.00;;;;;;;;;;5182246;27;318736;-79
2023/12/29 03:00:15;;;;;;;139.17;77.97;;;;;;;;;;5175273;27;319282;-79
2023/12/29 03:02:42;;;;;;;131.00;72.43;;;;;;;;;;5187008;27;319121;-79
2023/12/29 03:05:09;;;;;;;130.07;71.30;;;;;;;;;;5185698;27;319109;-79
2023/12/29 03:07:36;;;;;;;112.73;65.43;;;;;;;;;;5167412;27;319284;-79
2023/12/29 03:10:03;;;;;;;103.97;60.93;;;;;;;;;;5185134;27;319111;-79
2023/12/29 03:12:31;;;;;;;151.83;77.13;;;;;;;;;;5174213;27;319246;-79
2023/12/29 03:14:58;;;;;;;153.03;75.53;;;;;;;;;;5185906;27;319165;-79
2023/12/29 03:17:24;;;;;;;145.67;77.43;;;;;;;;;;5167764;27;319289;-79
2023/12/29 03:19:51;;;;;;;138.03;78.27;;;;;;;;;;5184152;27;319257;-79
2023/12/29 03:22:18;;;;;;;133.43;71.73;;;;;;;;;;5172128;27;318998;-79
2023/12/29 03:24:45;;;;;;;116.90;69.00;;;;;;;;;;5186876;27;319251;-79
2023/12/29 03:27:11;;;;;;;120.33;67.60;;;;;;;;;;5184865;27;318676;-79
2023/12/29 03:29:39;;;;;;;157.37;81.10;;;;;;;;;;5164572;27;418162;-79
2023/12/29 03:32:11;;;;;;;192.20;93.30;;;;;;;;;;5168819;27;319237;-79
2023/12/29 03:34:43;;;;;;;186.20;99.00;;;;;;;;;;5166308;27;318604;-79
2023/12/29 03:39:56;;;;;;;155.67;83.23;;;;;;;;;;5167450;27;391684;-79
2023/12/29 03:42:27;;;;;;;181.93;94.83;;;;;;;;;;5172942;27;347454;-79
2023/12/29 03:44:58;;;;;;;201.30;96.50;;;;;;;;;;5183242;27;318557;-79
2023/12/29 03:47:24;;;;;;;202.03;98.37;;;;;;;;;;5166669;27;319214;-79
2023/12/29 03:49:51;;;;;;;183.27;91.20;;;;;;;;;;5187355;27;334259;-79
2023/12/29 03:52:18;;;;;;;226.37;103.67;;;;;;;;;;5178347;27;319229;-79
2023/12/29 03:54:46;;;;;;;198.47;97.73;;;;;;;;;;5188773;27;319814;-79
2023/12/29 03:57:13;;;;;;;164.30;85.17;;;;;;;;;;5178600;27;319418;-79
2023/12/29 03:59:39;;;;;;;169.83;84.17;;;;;;;;;;5181403;27;319073;-79
2023/12/29 04:02:10;;;;;;;139.23;71.63;;;;;;;;;;5190884;27;318921;-79
2023/12/29 04:04:40;;;;;;;137.93;73.60;;;;;;;;;;5179632;27;318583;-79
2023/12/29 04:07:11;;;;;;;141.07;76.37;;;;;;;;;;5190756;27;318654;-79
2023/12/29 04:09:40;;;;;;;128.57;71.23;;;;;;;;;;5168964;27;418768;-79
2023/12/29 04:12:11;;;;;;;137.73;70.13;;;;;;;;;;5190328;27;317449;-80
2023/12/29 04:14:37;;;;;;;133.93;72.70;;;;;;;;;;5122327;27;417342;-79
2023/12/29 04:17:24;;;;;;;117.20;68.23;;;;;;;;;;5181413;27;319277;-79
2023/12/29 04:19:52;;;;;;;119.27;66.73;;;;;;;;;;5173469;27;417728;-79
2023/12/29 04:22:19;;;;;;;121.63;70.13;;;;;;;;;;5176542;27;319050;-79
2023/12/29 04:24:57;;;;;;;121.00;65.83;;;;;;;;;;5165881;27;319253;-80
2023/12/29 04:27:25;;;;;;;145.43;73.90;;;;;;;;;;5143207;27;319332;-80
2023/12/29 04:29:53;;;;;;;158.27;79.53;;;;;;;;;;5188163;27;319093;-79
2023/12/29 04:32:20;;;;;;;152.07;80.47;;;;;;;;;;5173936;27;319240;-79
2023/12/29 04:34:49;;;;;;;163.33;82.60;;;;;;;;;;5190234;27;318531;-80
2023/12/29 04:37:20;;;;;;;149.80;71.93;;;;;;;;;;5175799;27;319049;-78
2023/12/29 04:39:49;;;;;;;128.23;66.83;;;;;;;;;;5166775;27;319635;-78
2023/12/29 04:42:18;;;;;;;163.13;78.60;;;;;;;;;;5163666;27;318441;-79
2023/12/29 04:44:47;;;;;;;136.43;67.97;;;;;;;;;;5160468;27;319351;-78
2023/12/29 04:47:16;;;;;;;155.57;81.07;;;;;;;;;;5179083;27;319023;-78
2023/12/29 04:49:43;;;;;;;162.00;84.23;;;;;;;;;;5162509;27;317293;-79
2023/12/29 04:52:10;;;;;;;167.70;86.57;;;;;;;;;;5188326;27;320226;-79
2023/12/29 04:54:45;;;;;;;141.93;77.73;;;;;;;;;;5177181;27;319194;-80
2023/12/29 04:57:12;;;;;;;123.90;69.93;;;;;;;;;;5188460;27;319112;-78
2023/12/29 04:59:40;;;;;;;138.70;73.70;;;;;;;;;;5163504;27;418586;-79
2023/12/29 05:02:07;;;;;;;151.40;75.70;;;;;;;;;;5169972;27;317781;-79
2023/12/29 05:04:33;;;;;;;158.67;80.77;;;;;;;;;;5164635;27;319227;-80
2023/12/29 05:07:00;;;;;;;135.83;71.57;;;;;;;;;;5185639;27;337465;-79
2023/12/29 05:09:27;;;;;;;134.97;72.27;;;;;;;;;;5169464;27;319403;-78
2023/12/29 05:12:04;;;;;;;148.37;72.40;;;;;;;;;;5146643;27;319679;-78
2023/12/29 05:14:31;;;;;;;126.20;64.73;;;;;;;;;;5158396;27;317539;-79
2023/12/29 05:17:02;;;;;;;116.93;65.67;;;;;;;;;;5189269;27;318718;-80
2023/12/29 05:19:32;;;;;;;133.90;66.73;;;;;;;;;;5167370;27;318804;-78
2023/12/29 05:21:58;;;;;;;108.57;58.43;;;;;;;;;;5191256;27;317266;-78
2023/12/29 05:24:25;;;;;;;103.87;61.80;;;;;;;;;;5174049;27;319464;-78
2023/12/29 05:26:52;;;;;;;106.07;58.50;;;;;;;;;;5188567;27;319203;-78
2023/12/29 05:29:20;;;;;;;120.07;62.13;;;;;;;;;;5177178;27;318971;-79
2023/12/29 05:31:52;;;;;;;113.83;59.33;;;;;;;;;;5181945;27;318830;-80
2023/12/29 05:34:29;;;;;;;124.60;61.57;;;;;;;;;;5160093;27;319005;-79
2023/12/29 05:36:58;;;;;;;124.90;64.77;;;;;;;;;;5168300;27;318321;-80
2023/12/29 05:39:26;;;;;;;128.27;64.37;;;;;;;;;;5149707;27;347059;-79
2023/12/29 05:41:53;;;;;;;142.17;69.10;;;;;;;;;;5176265;27;318362;-79
2023/12/29 05:44:21;;;;;;;132.67;70.47;;;;;;;;;;5167912;27;319138;-80
2023/12/29 05:46:48;;;;;;;157.77;74.47;;;;;;;;;;5191722;27;319218;-79
2023/12/29 05:49:15;;;;;;;141.03;72.33;;;;;;;;;;5179951;27;319426;-79
2023/12/29 05:51:41;;;;;;;162.43;82.43;;;;;;;;;;5179869;27;319205;-79
2023/12/29 05:54:08;;;;;;;169.23;86.87;;;;;;;;;;5191103;27;319117;-79
2023/12/29 05:56:35;;;;;;;197.63;93.77;;;;;;;;;;5179922;27;319210;-79
2023/12/29 05:59:05;;;;;;;188.70;92.27;;;;;;;;;;5186533;27;318506;-79
2023/12/29 06:01:47;;;;;;;210.53;101.47;;;;;;;;;;5168520;27;318629;-79
2023/12/29 06:04:13;;;;;;;174.93;90.93;;;;;;;;;;5179193;27;319442;-79
2023/12/29 06:06:43;;;;;;;165.47;83.23;;;;;;;;;;5190376;27;329399;-79
2023/12/29 06:09:10;;;;;;;146.30;81.30;;;;;;;;;;5191021;27;318295;-79
2023/12/29 06:11:47;;;;;;;198.50;101.23;;;;;;;;;;5171907;27;319534;-79
2023/12/29 06:14:17;;;;;;;173.83;93.37;;;;;;;;;;5178988;27;320232;-79
2023/12/29 06:17:03;;;;;;;155.47;80.53;;;;;;;;;;5191794;27;317676;-79
2023/12/29 06:19:32;;;;;;;194.03;91.37;;;;;;;;;;5142336;27;317828;-79
2023/12/29 06:21:59;;;;;;;220.87;101.30;;;;;;;;;;5198759;27;317589;-79
2023/12/29 06:24:29;;;;;;;194.43;98.93;;;;;;;;;;5195670;27;319120;-78
2023/12/29 06:26:56;;;;;;;209.77;104.03;;;;;;;;;;5206154;27;317760;-79
2023/12/29 06:29:22;;;;;;;182.97;89.73;;;;;;;;;;5191694;27;318722;-79
2023/12/29 06:31:50;;;;;;;140.37;76.03;;;;;;;;;;5204880;27;317765;-78
2023/12/29 06:34:17;;;;;;;129.13;71.33;;;;;;;;;;5192576;27;342160;-78
2023/12/29 06:36:44;;;;;;;156.27;80.60;;;;;;;;;;5208107;27;317825;-79
2023/12/29 06:39:11;;;;;;;144.53;76.10;;;;;;;;;;5207517;27;317172;-78
2023/12/29 06:41:38;;;;;;;157.20;78.53;;;;;;;;;;5178950;27;419442;-79
2023/12/29 06:44:05;;;;;;;173.10;86.80;;;;;;;;;;5186640;27;318547;-78
2023/12/29 06:46:32;;;;;;;183.53;91.20;;;;;;;;;;5175187;27;319229;-79
2023/12/29 06:49:00;;;;;;;195.77;92.23;;;;;;;;;;5185359;27;345701;-79
2023/12/29 06:51:26;;;;;;;196.77;94.63;;;;;;;;;;5166857;27;319155;-79
2023/12/29 06:53:53;;;;;;;175.90;90.27;;;;;;;;;;5186989;27;318914;-79
2023/12/29 06:56:20;;;;;;;194.63;96.63;;;;;;;;;;5174928;27;319098;-78
2023/12/29 06:58:47;;;;;;;199.67;99.13;;;;;;;;;;5185806;27;318492;-79
2023/12/29 07:01:14;;;;;;;211.17;104.00;;;;;;;;;;5175589;27;318806;-78
2023/12/29 07:03:40;;;;;;;201.30;109.23;;;;;;;;;;5182128;27;319659;-78
2023/12/29 07:06:09;;;;;;;222.20;114.10;;;;;;;;;;5186758;27;320896;-79
2023/12/29 07:08:36;;;;;;;188.10;106.77;;;;;;;;;;5176409;27;320776;-78
2023/12/29 07:11:02;;;;;;;187.23;100.50;;;;;;;;;;5188170;27;352602;-79
2023/12/29 07:13:29;;;;;;;209.30;118.13;;;;;;;;;;5174189;27;320124;-79
2023/12/29 07:15:57;;;;;;;219.07;114.27;;;;;;;;;;5189374;27;320306;-80
2023/12/29 07:18:23;;;;;;;217.80;116.37;;;;;;;;;;5176938;27;320244;-80
2023/12/29 07:20:50;;;;;;;238.37;123.23;;;;;;;;;;5190322;27;320349;-79
2023/12/29 07:23:18;;;;;;;213.67;115.57;;;;;;;;;;5177657;27;320611;-79
2023/12/29 07:25:45;;;;;;;228.23;123.57;;;;;;;;;;5179683;27;320717;-80
2023/12/29 07:28:12;;;;;;;249.37;139.00;;;;;;;;;;5188887;27;320156;-80
2023/12/29 07:30:39;;;;;;;246.00;136.90;;;;;;;;;;5175151;27;421217;-80
2023/12/29 07:33:06;;;;;;;235.33;125.63;;;;;;;;;;5187231;27;319429;-78
2023/12/29 07:35:32;;;;;;;221.73;115.07;;;;;;;;;;5169339;27;320377;-78
2023/12/29 07:38:00;;;;;;;205.67;110.27;;;;;;;;;;5188206;27;320300;-78
2023/12/29 07:40:28;;;;;;;217.87;112.17;;;;;;;;;;5176093;27;320446;-78
2023/12/29 07:42:55;;;;;;;232.97;122.37;;;;;;;;;;5186414;27;320097;-79
2023/12/29 07:45:22;;;;;;;249.57;131.33;;;;;;;;;;5163064;27;319570;-79
2023/12/29 07:47:49;;;;;;;251.80;136.13;;;;;;;;;;5170439;27;320034;-79
2023/12/29 07:50:16;;;;;;;233.63;130.50;;;;;;;;;;5177613;27;320667;-79
2023/12/29 07:52:43;;;;;;;245.43;135.00;;;;;;;;;;5188330;27;320527;-79
2023/12/29 07:55:10;;;;;;;247.93;136.60;;;;;;;;;;5190024;27;320354;-79
2023/12/29 07:57:38;;;;;;;232.30;130.90;;;;;;;;;;5170740;27;320509;-80
2023/12/29 08:00:06;;;;;;;236.47;128.57;;;;;;;;;;5188440;27;319423;-78
2023/12/29 08:02:33;;;;;;;233.67;134.67;;;;;;;;;;5176148;27;320382;-79
2023/12/29 08:05:00;;;;;;;256.93;141.80;;;;;;;;;;5187614;27;320243;-79
2023/12/29 08:07:27;;;;;;;279.27;152.03;;;;;;;;;;5169269;27;319466;-79
2023/12/29 08:09:53;;;;;;;256.40;149.23;;;;;;;;;;5186708;27;320301;-78
2023/12/29 08:12:20;;;;;;;243.17;138.87;;;;;;;;;;5176033;27;319772;-78
2023/12/29 08:14:48;;;;;;;266.27;148.97;;;;;;;;;;5186965;27;320633;-79
2023/12/29 08:17:15;;;;;;;280.93;156.73;;;;;;;;;;5175951;27;320204;-80
2023/12/29 08:19:42;;;;;;;289.67;160.00;;;;;;;;;;5179864;27;320211;-78
2023/12/29 08:22:08;;;;;;;283.17;151.87;;;;;;;;;;5185472;27;320555;-80
2023/12/29 08:24:35;;;;;;;261.67;140.63;;;;;;;;;;5174884;27;319421;-79
2023/12/29 08:27:03;;;;;;;247.97;131.10;;;;;;;;;;5188269;27;320382;-79
2023/12/29 08:29:30;;;;;;;186.27;104.83;;;;;;;;;;5169836;27;320170;-79
2023/12/29 08:31:58;;;;;;;171.40;89.40;;;;;;;;;;5186642;27;319722;-78
2023/12/29 08:34:25;;;;;;;178.07;88.77;;;;;;;;;;5176155;27;318432;-79
2023/12/29 08:36:52;;;;;;;110.10;58.77;;;;;;;;;;5187423;27;318250;-80
2023/12/29 08:39:19;;;;;;;95.23;54.70;;;;;;;;;;5177900;27;319221;-79
2023/12/29 08:41:49;;;;;;;103.47;60.23;;;;;;;;;;5181239;27;318567;-79
2023/12/29 08:44:16;;;;;;;106.47;60.10;;;;;;;;;;5173807;27;319350;-79
2023/12/29 08:46:43;;;;;;;120.93;64.20;;;;;;;;;;5185072;27;319139;-79
2023/12/29 08:49:11;;;;;;;107.37;58.83;;;;;;;;;;5185150;27;338604;-79
2023/12/29 08:51:37;;;;;;;134.07;75.57;;;;;;;;;;5162775;27;399143;-79
2023/12/29 08:54:04;;;;;;;117.13;63.60;;;;;;;;;;5186621;27;319027;-79
2023/12/29 08:56:31;;;;;;;111.07;63.53;;;;;;;;;;5175137;27;319205;-78
2023/12/29 08:58:58;;;;;;;119.20;67.10;;;;;;;;;;5185049;27;318840;-78
2023/12/29 09:01:24;;;;;;;117.80;64.00;;;;;;;;;;5166773;27;319157;-78
2023/12/29 09:03:51;;;;;;;100.43;61.57;;;;;;;;;;5188508;27;319038;-80
2023/12/29 09:06:19;;;;;;;111.30;63.93;;;;;;;;;;5176894;27;319344;-79
2023/12/29 09:08:46;;;;;;;116.57;65.63;;;;;;;;;;5189665;27;318975;-78
2023/12/29 09:11:14;;;;;;;122.77;67.70;;;;;;;;;;5178347;27;319191;-79
2023/12/29 09:13:40;;;;;;;116.40;67.07;;;;;;;;;;5181958;27;319025;-80
2023/12/29 09:16:07;;;;;;;128.43;72.80;;;;;;;;;;5192771;27;319158;-79
2023/12/29 09:18:34;;;;;;;145.20;76.77;;;;;;;;;;5192225;27;319097;-78
2023/12/29 09:21:00;;;;;;;109.93;66.10;;;;;;;;;;5207149;27;318206;-79
2023/12/29 09:23:28;;;;;;;127.03;72.40;;;;;;;;;;5190381;27;317643;-80
2023/12/29 09:25:55;;;;;;;109.87;70.67;;;;;;;;;;5198918;27;318619;-78
2023/12/29 09:28:22;;;;;;;146.53;79.13;;;;;;;;;;5178202;27;318983;-79
2023/12/29 09:30:49;;;;;;;138.70;79.23;;;;;;;;;;5188148;27;318825;-79
2023/12/29 09:33:15;;;;;;;150.63;85.77;;;;;;;;;;5174397;27;338575;-79
2023/12/29 09:35:42;;;;;;;143.57;81.20;;;;;;;;;;5181759;27;319264;-80
2023/12/29 09:38:09;;;;;;;112.43;70.40;;;;;;;;;;5188001;27;319324;-79
2023/12/29 09:40:38;;;;;;;112.03;61.47;;;;;;;;;;5177166;27;319194;-79
2023/12/29 09:43:05;;;;;;;105.37;61.73;;;;;;;;;;5186283;27;318675;-79
2023/12/29 09:45:35;;;;;;;97.77;57.50;;;;;;;;;;5168503;27;319645;-79
2023/12/29 09:48:03;;;;;;;80.80;48.77;;;;;;;;;;5185138;27;318050;-80
2023/12/29 09:50:30;;;;;;;74.53;46.40;;;;;;;;;;5178513;27;318337;-79
2023/12/29 09:52:58;;;;;;;76.00;43.83;;;;;;;;;;5189949;27;317987;-80
2023/12/29 09:55:26;;;;;;;71.87;44.10;;;;;;;;;;5167362;27;317625;-78
2023/12/29 09:57:55;;;;;;;80.77;51.20;;;;;;;;;;5179531;27;318386;-79
2023/12/29 10:00:22;;;;;;;100.63;60.97;;;;;;;;;;5173956;27;318308;-79
2023/12/29 10:02:52;;;;;;;78.87;49.27;;;;;;;;;;5187914;27;319097;-79
2023/12/29 10:05:18;;;;;;;77.10;47.20;;;;;;;;;;5174989;27;317983;-79
2023/12/29 10:07:48;;;;;;;75.03;44.03;;;;;;;;;;5156692;27;318167;-81
2023/12/29 10:10:16;;;;;;;81.93;46.67;;;;;;;;;;5177865;27;318236;-80
2023/12/29 10:12:44;;;;;;;88.97;43.30;;;;;;;;;;5189843;27;318158;-79
2023/12/29 10:15:18;;;;;;;83.23;49.57;;;;;;;;;;5171655;27;339189;-79
2023/12/29 10:17:52;;;;;;;75.37;45.97;;;;;;;;;;5181741;27;318234;-79
2023/12/29 10:20:27;;;;;;;71.10;43.37;;;;;;;;;;5174580;27;318801;-80
2023/12/29 10:23:05;;;;;;;72.70;42.83;;;;;;;;;;5185195;27;317502;-80
2023/12/29 10:25:33;;;;;;;73.43;41.23;;;;;;;;;;5163952;27;417625;-79
2023/12/29 10:28:00;;;;;;;80.27;47.20;;;;;;;;;;5187987;27;318429;-79
2023/12/29 10:30:28;;;;;;;63.23;39.87;;;;;;;;;;5176241;27;318165;-80
2023/12/29 10:32:55;;;;;;;94.37;51.97;;;;;;;;;;5189094;27;318238;-80
2023/12/29 10:35:22;;;;;;;99.67;52.20;;;;;;;;;;5170628;27;318960;-79
2023/12/29 10:37:49;;;;;;;82.90;47.07;;;;;;;;;;5187073;27;318248;-78
2023/12/29 10:40:19;;;;;;;75.40;44.40;;;;;;;;;;5176528;27;318132;-81
2023/12/29 10:42:57;;;;;;;71.67;36.00;;;;;;;;;;5189351;27;318042;-79
2023/12/29 10:45:25;;;;;;;61.27;35.47;;;;;;;;;;5172460;27;317627;-79
2023/12/29 10:47:54;;;;;;;56.87;33.03;;;;;;;;;;5188354;27;318013;-81
2023/12/29 10:50:20;;;;;;;59.40;39.43;;;;;;;;;;5178090;27;318207;-80
2023/12/29 10:52:47;;;;;;;62.77;39.13;;;;;;;;;;5187092;27;317850;-79
2023/12/29 10:55:14;;;;;;;82.73;43.57;;;;;;;;;;5178280;27;347908;-80
2023/12/29 10:57:41;;;;;;;73.77;42.33;;;;;;;;;;5181175;27;318223;-79
2023/12/29 11:00:12;;;;;;;78.33;43.43;;;;;;;;;;5176080;27;318189;-78
2023/12/29 11:02:39;;;;;;;75.00;43.77;;;;;;;;;;5189050;27;317572;-79
2023/12/29 11:05:09;;;;;;;68.93;41.93;;;;;;;;;;5185204;27;317532;-81
2023/12/29 11:07:37;;;;;;;74.27;40.70;;;;;;;;;;5168048;27;418006;-80
2023/12/29 11:10:07;;;;;;;77.87;47.93;;;;;;;;;;5191522;27;318270;-80
2023/12/29 11:12:36;;;;;;;75.70;48.80;;;;;;;;;;5173143;27;416782;-81
2023/12/29 11:15:04;;;;;;;74.37;46.77;;;;;;;;;;5189763;27;318284;-80
2023/12/29 11:17:33;;;;;;;83.17;47.50;;;;;;;;;;5166866;27;317575;-80
2023/12/29 11:20:01;;;;;;;82.77;51.83;;;;;;;;;;5189339;27;317900;-80
2023/12/29 11:22:31;;;;;;;78.73;46.70;;;;;;;;;;5177811;27;318212;-80
2023/12/29 11:25:01;;;;;;;73.63;46.80;;;;;;;;;;5189157;27;318022;-80
2023/12/29 11:27:30;;;;;;;88.30;53.93;;;;;;;;;;5170313;27;345998;-80
2023/12/29 11:29:58;;;;;;;82.20;50.90;;;;;;;;;;5188862;27;317807;-81
2023/12/29 11:32:33;;;;;;;81.83;48.40;;;;;;;;;;5175640;27;318061;-79
2023/12/29 11:35:11;;;;;;;89.90;49.30;;;;;;;;;;5187900;27;317886;-79
2023/12/29 11:38:00;;;;;;;80.47;44.33;;;;;;;;;;5171443;27;417553;-79
2023/12/29 11:40:34;;;;;;;63.10;39.63;;;;;;;;;;5196678;27;317116;-78
2023/12/29 11:43:07;;;;;;;62.67;38.10;;;;;;;;;;5205572;27;317343;-78
2023/12/29 11:45:36;;;;;;;73.43;39.83;;;;;;;;;;5182011;27;417049;-79
2023/12/29 11:48:03;;;;;;;74.20;39.40;;;;;;;;;;5205066;27;316558;-79
2023/12/29 11:50:31;;;;;;;66.70;40.70;;;;;;;;;;5193243;27;322840;-79
2023/12/29 11:53:00;;;;;;;77.93;43.17;;;;;;;;;;5195631;27;317467;-79
2023/12/29 11:55:32;;;;;;;72.13;43.23;;;;;;;;;;5166599;27;317953;-79
2023/12/29 11:57:59;;;;;;;63.47;41.87;;;;;;;;;;5186300;27;317491;-81
2023/12/29 12:00:42;;;;;;;66.47;41.47;;;;;;;;;;5173070;27;318611;-79
2023/12/29 12:03:19;;;;;;;70.87;50.17;;;;;;;;;;5174536;27;318223;-80
2023/12/29 12:05:45;;;;;;;61.37;43.23;;;;;;;;;;5175675;27;318193;-79
2023/12/29 12:08:28;;;;;;;71.73;46.50;;;;;;;;;;5174267;27;318291;-80
2023/12/29 12:10:55;;;;;;;76.53;41.37;;;;;;;;;;5184484;27;317718;-80
2023/12/29 12:13:45;;;;;;;70.07;44.43;;;;;;;;;;5166262;27;318377;-80
2023/12/29 12:16:45;;;;;;;70.67;45.53;;;;;;;;;;5171528;27;390289;-80
2023/12/29 12:19:13;;;;;;;71.17;46.60;;;;;;;;;;5171746;27;318368;-81
2023/12/29 12:21:41;;;;;;;75.50;47.90;;;;;;;;;;5174836;27;317520;-79
2023/12/29 12:24:09;;;;;;;84.60;52.20;;;;;;;;;;5178297;27;318114;-79
2023/12/29 12:26:36;;;;;;;84.37;48.60;;;;;;;;;;5186041;27;318063;-80
2023/12/29 12:29:03;;;;;;;86.37;48.00;;;;;;;;;;5185636;27;318149;-80
2023/12/29 12:31:30;;;;;;;105.57;64.43;;;;;;;;;;5170294;27;318104;-80
2023/12/29 12:33:57;;;;;;;102.43;63.93;;;;;;;;;;5186073;27;319115;-80
2023/12/29 12:36:24;;;;;;;114.97;64.60;;;;;;;;;;5176663;27;318930;-79
2023/12/29 12:38:53;;;;;;;176.80;115.00;;;;;;;;;;5189077;27;319083;-80
2023/12/29 12:41:21;;;;;;;86.73;52.77;;;;;;;;;;5176197;27;320090;-80
2023/12/29 12:43:57;;;;;;;70.47;45.53;;;;;;;;;;5186397;27;317987;-79
2023/12/29 12:46:25;;;;;;;67.00;41.67;;;;;;;;;;5184545;27;318246;-80
2023/12/29 12:48:52;;;;;;;70.70;51.00;;;;;;;;;;5205414;27;317178;-79
2023/12/29 12:51:20;;;;;;;70.07;40.03;;;;;;;;;;5191606;27;318193;-78
2023/12/29 12:53:49;;;;;;;73.67;38.60;;;;;;;;;;5195806;27;317945;-79
2023/12/29 12:56:17;;;;;;;71.80;40.40;;;;;;;;;;5188800;27;317874;-80
2023/12/29 12:58:45;;;;;;;57.33;39.93;;;;;;;;;;5186993;27;317826;-80
2023/12/29 13:01:13;;;;;;;67.60;41.47;;;;;;;;;;5162827;27;380553;-79
2023/12/29 13:03:40;;;;;;;73.93;46.30;;;;;;;;;;5179845;27;318264;-80
2023/12/29 13:06:08;;;;;;;63.77;33.73;;;;;;;;;;5188078;27;318265;-79
2023/12/29 13:08:35;;;;;;;60.90;35.60;;;;;;;;;;5171044;27;417680;-78
2023/12/29 13:11:02;;;;;;;38.90;26.83;;;;;;;;;;5186932;27;317593;-78
2023/12/29 13:13:37;;;;;;;78.57;39.60;;;;;;;;;;5168882;27;318130;-79
2023/12/29 13:16:05;;;;;;;73.67;44.67;;;;;;;;;;5188952;27;318462;-78
2023/12/29 13:18:33;;;;;;;72.10;45.00;;;;;;;;;;5170278;27;351287;-79
2023/12/29 13:21:02;;;;;;;74.67;42.33;;;;;;;;;;5186059;27;317705;-80
2023/12/29 13:23:29;;;;;;;250.90;152.10;;;;;;;;;;5166793;27;318433;-79
2023/12/29 13:25:58;;;;;;;95.53;61.33;;;;;;;;;;5182902;27;320491;-81
2023/12/29 13:28:27;;;;;;;97.20;54.07;;;;;;;;;;5175283;27;332749;-80
2023/12/29 13:30:55;;;;;;;72.43;45.17;;;;;;;;;;5187001;27;318555;-80
2023/12/29 13:33:31;;;;;;;67.80;37.67;;;;;;;;;;5173485;27;318860;-80
2023/12/29 13:36:07;;;;;;;37.77;23.53;;;;;;;;;;5183954;27;317625;-80
2023/12/29 13:38:39;;;;;;;27.43;16.93;;;;;;;;;;5171753;27;417293;-80
2023/12/29 13:41:10;;;;;;;33.77;20.50;;;;;;;;;;5187330;27;317667;-80
2023/12/29 13:43:42;;;;;;;45.87;25.77;;;;;;;;;;5164769;27;418675;-80
2023/12/29 13:46:09;;;;;;;168.10;79.97;;;;;;;;;;5178176;27;318086;-80
2023/12/29 13:48:39;;;;;;;74.30;43.77;;;;;;;;;;5188767;27;318460;-80
2023/12/29 13:51:06;;;;;;;74.43;46.10;;;;;;;;;;5186282;27;318628;-81
2023/12/29 13:53:33;;;;;;;99.73;52.73;;;;;;;;;;5165145;27;418955;-81
2023/12/29 13:56:08;;;;;;;104.73;58.20;;;;;;;;;;5190181;27;318369;-81
2023/12/29 13:58:34;;;;;;;90.07;55.43;;;;;;;;;;5173830;27;418615;-80
2023/12/29 14:01:01;;;;;;;109.00;60.47;;;;;;;;;;5189093;27;318529;-81
2023/12/29 14:03:33;;;;;;;234.37;100.87;;;;;;;;;;5169339;27;319241;-80
2023/12/29 14:06:05;;;;;;;130.77;71.07;;;;;;;;;;5189469;27;320346;-80
2023/12/29 14:08:34;;;;;;;111.10;64.77;;;;;;;;;;5178068;27;319432;-80
2023/12/29 14:11:02;;;;;;;101.43;62.50;;;;;;;;;;5186593;27;358582;-81
2023/12/29 14:13:29;;;;;;;112.33;64.67;;;;;;;;;;5167175;27;319418;-80